createdAt,value
2023-01-13T00:00:22.252Z,8.50
2023-01-13T00:04:22.480Z,8.50
2023-01-13T00:08:25.180Z,8.60
2023-01-13T00:12:25.485Z,8.70
2023-01-13T00:16:25.746Z,8.70
2023-01-13T00:20:26.014Z,8.60
2023-01-13T00:24:29.073Z,8.70
2023-01-13T00:28:29.657Z,8.70
2023-01-13T00:32:31.190Z,8.60
2023-01-13T00:36:33.317Z,8.70
2023-01-13T00:40:36.172Z,8.70
2023-01-13T00:44:36.447Z,8.80
2023-01-13T00:48:38.098Z,8.70
2023-01-13T00:52:39.561Z,8.60
2023-01-13T00:56:43.352Z,8.60
2023-01-13T01:00:43.838Z,8.50
2023-01-13T01:04:44.056Z,8.50
2023-01-13T01:08:45.988Z,8.40
2023-01-13T01:12:48.965Z,8.40
2023-01-13T01:16:49.149Z,8.30
2023-01-13T01:20:49.347Z,8.40
2023-01-13T01:24:51.149Z,8.30
2023-01-13T01:28:54.798Z,8.30
2023-01-13T01:32:55.456Z,8.40
2023-01-13T01:36:55.694Z,8.30
2023-01-13T01:40:55.880Z,8.40
2023-01-13T01:45:05.529Z,8.40
2023-01-13T01:49:15.582Z,8.40
2023-01-13T01:53:23.653Z,8.40
2023-01-13T01:57:32.898Z,8.40
2023-01-13T02:01:37.126Z,8.40
2023-01-13T02:05:39.076Z,8.40
2023-01-13T02:09:40.156Z,8.30
2023-01-13T02:13:40.493Z,8.30
2023-01-13T02:18:05.912Z,8.30
2023-01-13T02:22:47.857Z,8.30
2023-01-13T02:27:34.508Z,8.40
2023-01-13T02:31:43.056Z,8.40
2023-01-13T02:35:53.560Z,8.40
2023-01-13T02:40:01.482Z,8.40
2023-01-13T02:44:07.151Z,8.40
2023-01-13T02:48:14.175Z,8.40
2023-01-13T02:52:22.334Z,8.50
2023-01-13T02:56:26.091Z,8.50
2023-01-13T03:00:27.529Z,8.40
2023-01-13T03:04:55.105Z,8.40
2023-01-13T03:09:06.317Z,8.40
2023-01-13T03:13:23.924Z,8.40
2023-01-13T03:17:34.417Z,8.40
2023-01-13T03:21:51.271Z,8.50
2023-01-13T03:25:59.081Z,8.40
2023-01-13T03:30:05.225Z,8.50
2023-01-13T03:34:12.603Z,8.40
2023-01-13T03:38:21.301Z,8.50
2023-01-13T03:42:26.500Z,8.40
2023-01-13T03:46:49.760Z,8.40
2023-01-13T03:50:55.260Z,8.40
2023-01-13T03:55:04.798Z,8.40
2023-01-13T03:59:08.211Z,8.40
2023-01-13T04:03:14.623Z,8.30
2023-01-13T04:07:26.588Z,8.30
2023-01-13T04:11:38.089Z,8.30
2023-01-13T04:15:42.855Z,8.40
2023-01-13T04:19:43.068Z,8.30
2023-01-13T04:23:43.091Z,8.30
2023-01-13T04:27:45.717Z,8.40
2023-01-13T04:31:45.915Z,8.30
2023-01-13T04:35:48.538Z,8.30
2023-01-13T04:39:49.254Z,8.40
2023-01-13T04:43:51.924Z,8.40
2023-01-13T04:47:52.011Z,8.40
2023-01-13T04:51:52.150Z,8.40
2023-01-13T04:55:52.456Z,8.40
2023-01-13T04:59:55.270Z,8.30
2023-01-13T05:03:55.369Z,8.20
2023-01-13T05:07:55.810Z,8.20
2023-01-13T05:12:08.362Z,8.10
2023-01-13T05:16:26.113Z,8.10
2023-01-13T05:20:27.001Z,8.20
2023-01-13T05:24:39.572Z,8.30
2023-01-13T05:28:39.829Z,8.40
2023-01-13T05:32:42.813Z,8.40
2023-01-13T05:36:42.863Z,8.40
2023-01-13T05:40:57.759Z,8.40
2023-01-13T05:44:58.675Z,8.40
2023-01-13T05:49:01.891Z,8.40
2023-01-13T05:53:01.922Z,8.40
2023-01-13T05:57:02.046Z,8.40
2023-01-13T06:01:08.665Z,8.40
2023-01-13T06:05:12.173Z,8.40
2023-01-13T06:09:12.241Z,8.40
2023-01-13T06:13:12.383Z,8.40
2023-01-13T06:17:15.637Z,8.40
2023-01-13T06:21:18.360Z,8.40
2023-01-13T06:25:29.308Z,8.40
2023-01-13T06:29:29.379Z,8.40
2023-01-13T06:33:35.843Z,8.40
2023-01-13T06:37:40.534Z,8.40
2023-01-13T06:41:53.425Z,8.40
2023-01-13T06:45:57.116Z,8.30
2023-01-13T06:49:57.419Z,8.40
2023-01-13T06:54:00.133Z,8.30
2023-01-13T06:58:01.339Z,8.40
2023-01-13T07:02:01.413Z,8.30
2023-01-13T07:06:02.302Z,8.40
2023-01-13T07:10:05.124Z,8.40
2023-01-13T07:14:17.922Z,8.30
2023-01-13T07:18:18.044Z,8.40
2023-01-13T07:22:18.179Z,8.40
2023-01-13T07:26:20.848Z,8.40
2023-01-13T07:30:21.889Z,8.40
2023-01-13T07:34:21.929Z,8.40
2023-01-13T07:38:21.963Z,8.40
2023-01-13T07:42:37.182Z,8.50
2023-01-13T07:46:37.286Z,8.50
2023-01-13T07:50:37.460Z,8.50
2023-01-13T07:54:40.936Z,8.50
2023-01-13T07:58:44.976Z,8.60
2023-01-13T08:02:45.135Z,8.70
2023-01-13T08:06:45.298Z,8.70
2023-01-13T08:10:45.476Z,8.70
2023-01-13T08:14:50.212Z,8.70
2023-01-13T08:18:50.308Z,8.80
2023-01-13T08:22:50.509Z,8.80
2023-01-13T08:26:50.663Z,8.80
2023-01-13T08:30:54.302Z,8.90
2023-01-13T08:34:54.539Z,8.90
2023-01-13T08:38:54.714Z,9.00
2023-01-13T08:42:55.545Z,9.00
2023-01-13T08:46:59.424Z,9.10
2023-01-13T08:51:06.283Z,9.20
2023-01-13T08:55:07.113Z,9.20
2023-01-13T08:59:10.005Z,9.20
2023-01-13T09:03:12.819Z,9.20
2023-01-13T09:07:13.360Z,9.30
2023-01-13T09:11:34.606Z,9.50
2023-01-13T09:15:34.871Z,9.50
2023-01-13T09:19:37.760Z,9.60
2023-01-13T09:23:37.994Z,9.50
2023-01-13T09:27:38.454Z,9.40
2023-01-13T09:31:38.667Z,9.50
2023-01-13T09:35:42.242Z,9.60
2023-01-13T09:39:42.374Z,9.80
2023-01-13T09:43:58.442Z,9.80
2023-01-13T09:48:05.849Z,9.90
2023-01-13T09:52:16.550Z,10.00
2023-01-13T09:56:17.187Z,10.00
2023-01-13T10:00:27.541Z,10.10
2023-01-13T10:04:29.716Z,10.10
2023-01-13T10:08:37.724Z,10.10
2023-01-13T10:12:51.158Z,10.10
2023-01-13T10:17:03.621Z,10.30
2023-01-13T10:21:22.290Z,10.20
2023-01-13T10:25:52.099Z,10.40
2023-01-13T10:29:52.638Z,10.30
2023-01-13T10:34:01.673Z,10.20
2023-01-13T10:38:02.112Z,9.90
2023-01-13T10:42:15.876Z,9.60
2023-01-13T10:46:19.373Z,9.30
2023-01-13T10:50:29.839Z,9.00
2023-01-13T10:54:31.453Z,8.80
2023-01-13T10:58:34.331Z,8.60
2023-01-13T11:02:37.569Z,8.00
2023-01-13T11:06:38.163Z,7.60
2023-01-13T11:10:49.708Z,7.30
2023-01-13T11:14:54.206Z,7.20
2023-01-13T11:19:12.202Z,7.20
2023-01-13T11:23:25.427Z,7.10
2023-01-13T11:27:41.208Z,7.10
2023-01-13T11:31:53.038Z,7.10
2023-01-13T11:36:08.236Z,7.00
2023-01-13T11:40:17.751Z,6.90
2023-01-13T11:44:25.112Z,7.00
2023-01-13T11:48:31.855Z,7.20
2023-01-13T11:52:57.126Z,7.30
2023-01-13T11:57:47.968Z,7.40
2023-01-13T12:02:17.040Z,7.60
2023-01-13T12:06:33.163Z,7.90
2023-01-13T12:10:54.164Z,7.90
2023-01-13T12:15:38.489Z,7.80
2023-01-13T12:19:39.149Z,7.80
2023-01-13T12:23:49.819Z,7.90
2023-01-13T12:27:58.944Z,7.90
2023-01-13T12:32:00.632Z,7.80
2023-01-13T12:36:11.756Z,7.70
2023-01-13T12:40:38.691Z,7.60
2023-01-13T12:44:38.956Z,7.70
2023-01-13T12:49:05.284Z,7.70
2023-01-13T12:53:39.294Z,7.80
2023-01-13T12:57:42.442Z,7.80
2023-01-13T13:01:42.686Z,8.00
2023-01-13T13:05:57.448Z,8.00
2023-01-13T13:10:05.212Z,8.20
2023-01-13T13:14:14.723Z,8.60
2023-01-13T13:18:31.291Z,8.50
2023-01-13T13:22:53.942Z,8.60
2023-01-13T13:26:54.372Z,8.80
2023-01-13T13:31:23.886Z,9.00
2023-01-13T13:35:58.819Z,8.90
2023-01-13T13:40:12.056Z,8.70
2023-01-13T13:44:32.586Z,8.40
2023-01-13T13:48:35.290Z,8.10
2023-01-13T13:52:43.003Z,7.80
2023-01-13T13:56:47.910Z,7.70
2023-01-13T14:00:51.396Z,7.60
2023-01-13T14:05:10.163Z,7.80
2023-01-13T14:09:20.311Z,8.20
2023-01-13T14:13:25.751Z,8.30
2023-01-13T14:17:29.554Z,8.70
2023-01-13T14:21:33.648Z,8.80
2023-01-13T14:25:39.536Z,8.70
2023-01-13T14:29:40.626Z,8.40
2023-01-13T14:33:46.235Z,8.20
2023-01-13T14:37:54.377Z,7.90
2023-01-13T14:41:54.764Z,7.70
2023-01-13T14:46:02.726Z,7.40
2023-01-13T14:50:08.641Z,7.40
2023-01-13T14:54:49.213Z,7.30
2023-01-13T14:58:49.967Z,7.20
2023-01-13T15:02:53.670Z,7.10
2023-01-13T15:06:57.811Z,7.20
2023-01-13T15:11:02.863Z,7.40
2023-01-13T15:15:03.233Z,7.50
2023-01-13T15:19:03.449Z,7.40
2023-01-13T15:23:04.339Z,7.10
2023-01-13T15:27:20.370Z,7.00
2023-01-13T15:31:21.151Z,6.90
2023-01-13T15:35:22.863Z,6.60
2023-01-13T15:39:23.184Z,6.70
2023-01-13T15:43:39.546Z,6.70
2023-01-13T15:47:39.736Z,6.80
2023-01-13T15:51:40.242Z,6.80
2023-01-13T15:55:42.158Z,6.80
2023-01-13T15:59:44.809Z,6.80
2023-01-13T16:03:44.895Z,6.70
2023-01-13T16:07:45.343Z,6.70
2023-01-13T16:11:45.768Z,6.60
2023-01-13T16:15:52.537Z,6.60
2023-01-13T16:19:53.628Z,6.60
2023-01-13T16:23:55.285Z,6.60
2023-01-13T16:27:56.010Z,6.50
2023-01-13T16:31:58.714Z,6.50
2023-01-13T16:36:10.661Z,6.50
2023-01-13T16:40:26.307Z,6.60
2023-01-13T16:44:26.394Z,6.60
2023-01-13T16:48:29.338Z,6.60
2023-01-13T16:52:29.405Z,6.60
2023-01-13T16:56:33.050Z,6.50
2023-01-13T17:00:34.073Z,6.50
2023-01-13T17:04:36.803Z,6.50
2023-01-13T17:08:36.900Z,6.60
2023-01-13T17:12:37.154Z,6.70
2023-01-13T17:16:37.375Z,6.60
2023-01-13T17:20:40.022Z,6.60
2023-01-13T17:24:40.142Z,6.60
2023-01-13T17:28:40.213Z,6.60
2023-01-13T17:32:40.449Z,6.60
2023-01-13T17:36:43.654Z,6.60
2023-01-13T17:40:43.708Z,6.60
2023-01-13T17:44:43.924Z,6.50
2023-01-13T17:48:44.070Z,6.50
2023-01-13T17:52:46.710Z,6.50
2023-01-13T17:56:47.789Z,6.60
2023-01-13T18:00:48.475Z,6.60
2023-01-13T18:04:48.527Z,6.60
2023-01-13T18:08:51.829Z,6.60
2023-01-13T18:12:51.954Z,6.60
2023-01-13T18:16:52.425Z,6.60
2023-01-13T18:21:05.161Z,6.60
2023-01-13T18:25:27.189Z,6.50
2023-01-13T18:29:27.302Z,6.50
2023-01-13T18:33:27.661Z,6.50
2023-01-13T18:37:28.861Z,6.40
2023-01-13T18:41:56.152Z,6.40
2023-01-13T18:45:59.205Z,6.40
2023-01-13T18:50:00.751Z,6.40
2023-01-13T18:54:01.451Z,6.30
2023-01-13T18:58:04.880Z,6.10
2023-01-13T19:02:09.464Z,6.00
2023-01-13T19:06:14.262Z,6.00
2023-01-13T19:10:16.253Z,5.90
2023-01-13T19:14:34.168Z,5.80
2023-01-13T19:18:34.456Z,5.90
2023-01-13T19:22:37.297Z,6.00
2023-01-13T19:26:37.564Z,6.00
2023-01-13T19:30:40.295Z,5.90
2023-01-13T19:34:40.937Z,5.90
2023-01-13T19:38:41.399Z,5.90
2023-01-13T19:42:53.934Z,5.90
2023-01-13T19:46:56.619Z,5.90
2023-01-13T19:50:56.709Z,5.90
2023-01-13T19:54:57.353Z,6.00
2023-01-13T19:58:57.420Z,6.10
2023-01-13T20:03:03.605Z,6.20
2023-01-13T20:07:03.671Z,6.20
2023-01-13T20:11:16.447Z,6.30
2023-01-13T20:15:17.446Z,6.30
2023-01-13T20:19:20.199Z,6.30
2023-01-13T20:23:20.236Z,6.30
2023-01-13T20:27:20.295Z,6.30
2023-01-13T20:31:20.413Z,6.30
2023-01-13T20:35:24.412Z,6.30
2023-01-13T20:39:27.684Z,6.30
2023-01-13T20:43:27.869Z,6.40
2023-01-13T20:47:28.530Z,6.30
2023-01-13T20:51:31.206Z,6.30
2023-01-13T20:55:33.728Z,6.20
2023-01-13T20:59:33.933Z,6.30
2023-01-13T21:03:34.072Z,6.20
2023-01-13T21:07:37.840Z,6.20
2023-01-13T21:11:51.465Z,6.20
2023-01-13T21:15:52.614Z,6.20
2023-01-13T21:19:53.358Z,6.40
2023-01-13T21:23:56.267Z,6.40
2023-01-13T21:27:59.510Z,6.40
2023-01-13T21:32:00.305Z,6.40
2023-01-13T21:36:06.277Z,6.40
2023-01-13T21:40:13.126Z,6.40
2023-01-13T21:44:31.015Z,6.40
2023-01-13T21:48:31.267Z,6.40
2023-01-13T21:52:31.465Z,6.40
2023-01-13T21:56:34.293Z,6.20
2023-01-13T22:00:35.515Z,6.20
2023-01-13T22:04:36.136Z,6.20
2023-01-13T22:08:38.699Z,6.30
2023-01-13T22:12:41.486Z,6.30
2023-01-13T22:16:49.583Z,6.40
2023-01-13T22:20:49.918Z,6.40
2023-01-13T22:24:52.641Z,6.40
2023-01-13T22:28:55.523Z,6.40
2023-01-13T22:32:56.297Z,6.40
2023-01-13T22:36:56.663Z,6.50
2023-01-13T22:41:00.845Z,6.50
2023-01-13T22:45:03.780Z,6.50
2023-01-13T22:49:03.837Z,6.50
2023-01-13T22:53:03.850Z,6.50
2023-01-13T22:57:03.848Z,6.50
2023-01-13T23:01:19.249Z,6.40
2023-01-13T23:05:19.781Z,6.40
2023-01-13T23:09:19.885Z,6.40
2023-01-13T23:13:19.986Z,6.40
2023-01-13T23:17:22.691Z,6.40
2023-01-13T23:21:26.081Z,6.40
2023-01-13T23:25:26.141Z,6.40
2023-01-13T23:29:26.341Z,6.30
2023-01-13T23:33:29.213Z,6.30
2023-01-13T23:37:29.390Z,6.30
2023-01-13T23:41:30.979Z,6.30
2023-01-13T23:45:31.011Z,6.30
2023-01-13T23:49:33.800Z,6.20
2023-01-13T23:53:35.470Z,6.20
2023-01-13T23:57:35.495Z,6.20
